SHT13C EGNT-EGLL
Flight info
| Callsign | SHT13C |
|---|---|
| Flight time | N/A |
| Altitude | 27000 |
| Route | GIRLI P18 GASKO P16 RIBEL UP16 CROFT DCT NUGRA |
| Aircraft | A20N/M-SDE2E3FGHIRWXY/LB1 |
Departure
| Time | N/A |
|---|---|
| Airport | Newcastle International Airport (EGNT) |
Arrival
| Time | 2026-05-04 15:13 |
|---|---|
| Airport | London Heathrow Airport (EGLL) |
| Time | Latitude | Longitude | Altitude | Speed | Heading |
|---|---|---|---|---|---|
| 2026-05-04 15:08 | 51.42739 | -0.19789 | 2505 ft | 137 kts | 283° |
| 2026-05-04 15:09 | 51.43083 | -0.21232 | 2534 ft | 148 kts | 304° |
| 2026-05-04 15:09 | 51.43815 | -0.22435 | 2490 ft | 157 kts | 329° |
| 2026-05-04 15:09 | 51.44829 | -0.23046 | 2476 ft | 153 kts | 348° |
| 2026-05-04 15:10 | 51.46320 | -0.24794 | 2485 ft | 136 kts | 293° |
| 2026-05-04 15:10 | 51.46523 | -0.26282 | 2294 ft | 138 kts | 277° |
| 2026-05-04 15:10 | 51.46531 | -0.29341 | 1885 ft | 137 kts | 273° |
| 2026-05-04 15:11 | 51.46528 | -0.30873 | 1693 ft | 137 kts | 272° |
| 2026-05-04 15:11 | 51.46527 | -0.32405 | 1525 ft | 139 kts | 271° |
| 2026-05-04 15:11 | 51.46523 | -0.34008 | 1315 ft | 146 kts | 271° |
| 2026-05-04 15:11 | 51.46517 | -0.35620 | 1113 ft | 141 kts | 271° |
| 2026-05-04 15:12 | 51.46513 | -0.37155 | 916 ft | 136 kts | 272° |
| 2026-05-04 15:12 | 51.46508 | -0.38659 | 720 ft | 134 kts | 272° |
| 2026-05-04 15:12 | 51.46504 | -0.40151 | 539 ft | 134 kts | 272° |
| 2026-05-04 15:12 | 51.46497 | -0.41641 | 312 ft | 134 kts | 272° |
| 2026-05-04 15:13 | 51.46491 | -0.43127 | 156 ft | 133 kts | 275° |
| 2026-05-04 15:13 | 51.46492 | -0.44600 | 93 ft | 125 kts | 272° |
| 2026-05-04 15:13 | 51.46488 | -0.45726 | 89 ft | 75 kts | 269° |
| 2026-05-04 15:13 | 51.46487 | -0.46284 | 94 ft | 27 kts | 271° |
| 2026-05-04 15:14 | 51.46491 | -0.46427 | 91 ft | 4 kts | 273° |
| 2026-05-04 15:14 | 51.46540 | -0.46732 | 94 ft | 43 kts | 296° |
| 2026-05-04 15:14 | 51.46617 | -0.46863 | 90 ft | 7 kts | 346° |
| 2026-05-04 15:14 | 51.46647 | -0.46905 | 92 ft | 7 kts | 300° |
| 2026-05-04 15:15 | 51.46656 | -0.46961 | 93 ft | 4 kts | 271° |
| 2026-05-04 15:15 | 51.46656 | -0.47033 | 91 ft | 12 kts | 269° |
| 2026-05-04 15:15 | 51.46655 | -0.47168 | 90 ft | 10 kts | 270° |
| 2026-05-04 15:16 | 51.46656 | -0.47294 | 93 ft | 11 kts | 270° |
| 2026-05-04 15:16 | 51.46655 | -0.47444 | 90 ft | 14 kts | 269° |
| 2026-05-04 15:16 | 51.46655 | -0.47841 | 90 ft | 23 kts | 270° |
| 2026-05-04 15:17 | 51.46655 | -0.48096 | 90 ft | 23 kts | 270° |
| 2026-05-04 15:17 | 51.46652 | -0.48548 | 90 ft | 17 kts | 269° |
| 2026-05-04 15:17 | 51.46657 | -0.48715 | 90 ft | 7 kts | 304° |
| 2026-05-04 15:18 | 51.46689 | -0.48746 | 93 ft | 5 kts | 353° |
| 2026-05-04 15:18 | 51.46843 | -0.48759 | 90 ft | 19 kts | 348° |
| 2026-05-04 15:18 | 51.46928 | -0.48789 | 92 ft | 5 kts | 359° |